Time;durP1;ratioP1;P1;durP2;ratioP2;P2;SDS_P1;SDS_P2;PMS_P1;PMS_P2;Temp;Humidity;BMP_temperature;BMP_pressure;BME280_temperature;BME280_humidity;BME280_pressure;Samples;Min_cycle;Max_cycle;Signal;HPM_P1;HPM_P2
2022/06/01 00:00:37;;;;;;;;;;;;;;;12.96;58.69;100376.50;4962935;28;126331;-64
2022/06/01 00:03:03;;;;;;;;;;;;;;;12.93;58.74;100373.53;4982873;28;98415;-72
2022/06/01 00:05:29;;;;;;;;;;;;;;;12.91;58.72;100381.16;4994890;27;100105;-72
2022/06/01 00:07:55;;;;;;;;;;;;;;;12.90;58.78;100374.13;5001570;27;107664;-72
2022/06/01 00:10:20;;;;;;;;;;;;;;;12.89;59.17;100383.31;4998802;27;128085;-64
2022/06/01 00:12:46;;;;;;;;;;;;;;;12.85;59.04;100388.53;5002826;27;98439;-64
2022/06/01 00:15:13;;;;;;;;;;;;;;;12.81;58.76;100389.34;5000000;27;125593;-72
2022/06/01 00:17:39;;;;;;;;;;;;;;;12.77;58.84;100386.41;4996478;27;98067;-71
2022/06/01 00:20:05;;;;;;;;;;;;;;;12.75;58.88;100388.59;5001314;27;113375;-72
2022/06/01 00:22:31;;;;;;;;;;;;;;;12.73;58.75;100388.88;4999541;27;107241;-64
2022/06/01 00:24:57;;;;;;;;;;;;;;;12.72;58.92;100391.88;5001422;27;98539;-64
2022/06/01 00:27:23;;;;;;;;;;;;;;;12.73;59.11;100390.75;5002542;27;97654;-64
2022/06/01 00:29:49;;;;;;;;;;;;;;;12.71;58.88;100385.66;5000896;27;128150;-71
2022/06/01 00:32:15;;;;;;;;;;;;;;;12.72;58.94;100389.16;5001128;27;127663;-64
2022/06/01 00:34:42;;;;;;;;;;;;;;;12.70;58.93;100388.66;5000826;27;98333;-64
2022/06/01 00:37:08;;;;;;;;;;;;;;;12.69;58.98;100395.13;5001759;27;97949;-64
2022/06/01 00:39:35;;;;;;;;;;;;;;;12.69;59.05;100393.25;5002154;27;99267;-71
2022/06/01 00:42:17;;;;;;;;;;;;;;;12.68;59.16;100390.81;4990465;27;98383;-71
2022/06/01 00:44:44;;;;;;;;;;;;;;;12.65;58.88;100397.59;4968448;27;100886;-71
2022/06/01 00:47:10;;;;;;;;;;;;;;;12.63;59.00;100398.97;4998972;27;115506;-64
2022/06/01 00:49:36;;;;;;;;;;;;;;;12.60;58.90;100396.81;4984961;27;98877;-72
2022/06/01 00:52:02;;;;;;;;;;;;;;;12.57;59.03;100405.50;4961732;28;128207;-64
2022/06/01 00:54:28;;;;;;;;;;;;;;;12.53;58.93;100403.34;4963421;27;98736;-72
2022/06/01 00:57:00;;;;;;;;;;;;;;;12.51;59.17;100400.13;4979584;28;117025;-64
2022/06/01 00:59:29;;;;;;;;;;;;;;;12.51;59.03;100399.34;4982226;27;109996;-71
2022/06/01 01:01:55;;;;;;;;;;;;;;;12.48;59.06;100395.28;4965432;27;129074;-71
2022/06/01 01:04:21;;;;;;;;;;;;;;;12.47;59.34;100390.97;4998488;27;128006;-72
2022/06/01 01:06:47;;;;;;;;;;;;;;;12.45;59.40;100395.84;4980877;27;98321;-71
2022/06/01 01:09:13;;;;;;;;;;;;;;;12.44;59.12;100398.84;4978481;27;128628;-72
2022/06/01 01:11:53;;;;;;;;;;;;;;;12.43;59.49;100405.34;4980366;27;128569;-72
2022/06/01 01:14:23;;;;;;;;;;;;;;;12.43;59.36;100411.53;4979514;28;102249;-64
2022/06/01 01:16:49;;;;;;;;;;;;;;;12.42;59.39;100417.25;4980944;27;98412;-64
2022/06/01 01:19:35;;;;;;;;;;;;;;;12.43;59.47;100418.84;4976546;27;121884;-71
2022/06/01 01:22:25;;;;;;;;;;;;;;;12.42;59.64;100418.06;4984550;27;98605;-64
2022/06/01 01:25:16;;;;;;;;;;;;;;;12.40;59.45;100414.00;5000820;27;97800;-71
2022/06/01 01:27:42;;;;;;;;;;;;;;;12.35;59.53;100420.25;4993804;27;98313;-65
2022/06/01 01:30:27;;;;;;;;;;;;;;;12.37;59.64;100417.25;4978459;27;103910;-71
2022/06/01 01:32:52;;;;;;;;;;;;;;;12.45;59.64;100411.25;4981253;27;98226;-65
2022/06/01 01:35:19;;;;;;;;;;;;;;;12.53;59.53;100416.06;4979499;27;128043;-64
2022/06/01 01:37:45;;;;;;;;;;;;;;;12.61;59.48;100409.25;4980773;27;97739;-71
2022/06/01 01:40:11;;;;;;;;;;;;;;;12.65;59.43;100413.00;4961321;28;128362;-64
2022/06/01 01:42:38;;;;;;;;;;;;;;;12.68;59.33;100415.94;4979630;28;128350;-64
2022/06/01 01:45:13;;;;;;;;;;;;;;;12.70;59.44;100413.78;4980649;27;98438;-64
2022/06/01 01:47:40;;;;;;;;;;;;;;;12.71;59.59;100414.59;4984486;27;97994;-72
2022/06/01 01:50:10;;;;;;;;;;;;;;;12.69;59.40;100406.78;4978725;27;99154;-72
2022/06/01 01:52:36;;;;;;;;;;;;;;;12.67;59.40;100421.66;4980396;27;98973;-71
2022/06/01 01:55:24;;;;;;;;;;;;;;;12.64;59.22;100420.31;4978818;27;127197;-64
2022/06/01 01:58:04;;;;;;;;;;;;;;;12.62;59.55;100427.91;4987052;27;97887;-64
2022/06/01 02:00:36;;;;;;;;;;;;;;;12.61;59.48;100420.06;5000158;27;114067;-71
2022/06/01 02:03:14;;;;;;;;;;;;;;;12.60;59.57;100421.16;5000592;27;99090;-71
2022/06/01 02:06:18;;;;;;;;;;;;;;;12.58;59.55;100426.88;5000280;27;98085;-71
2022/06/01 02:09:06;;;;;;;;;;;;;;;12.56;59.78;100430.94;5000623;27;98201;-72
2022/06/01 02:14:34;;;;;;;;;;;;;;;12.45;59.59;100425.56;4996895;27;97967;-64
2022/06/01 02:17:03;;;;;;;;;;;;;;;12.44;59.94;100429.38;4999879;27;128078;-64
2022/06/01 02:19:35;;;;;;;;;;;;;;;12.42;59.63;100415.34;4979562;27;97960;-64
2022/06/01 02:22:01;;;;;;;;;;;;;;;12.41;59.47;100429.13;4978873;27;123573;-64
2022/06/01 02:24:27;;;;;;;;;;;;;;;12.38;59.60;100414.28;4977021;27;128293;-64
2022/06/01 02:26:54;;;;;;;;;;;;;;;12.39;59.67;100425.91;4978352;28;97974;-64
2022/06/01 02:29:27;;;;;;;;;;;;;;;12.38;59.63;100425.09;5015197;27;112243;-64
2022/06/01 02:31:53;;;;;;;;;;;;;;;12.34;59.85;100426.75;4970161;28;111201;-71
2022/06/01 02:34:20;;;;;;;;;;;;;;;12.28;59.69;100425.97;4978062;27;129071;-64
2022/06/01 02:36:45;;;;;;;;;;;;;;;12.24;59.52;100434.91;4979458;28;98181;-71
2022/06/01 02:39:12;;;;;;;;;;;;;;;12.19;59.70;100426.84;4943111;27;117993;-71
2022/06/01 02:44:23;;;;;;;;;;;;;;;12.08;59.79;100422.56;4981862;27;98091;-64
2022/06/01 02:46:49;;;;;;;;;;;;;;;12.03;59.67;100416.13;4999443;27;97999;-71
2022/06/01 02:49:17;;;;;;;;;;;;;;;12.00;60.07;100423.97;4984437;27;98085;-72
2022/06/01 02:51:43;;;;;;;;;;;;;;;12.00;60.05;100424.75;4979008;27;98950;-64
2022/06/01 02:54:10;;;;;;;;;;;;;;;11.98;59.95;100434.22;4979320;27;127772;-64
2022/06/01 02:56:35;;;;;;;;;;;;;;;11.95;59.96;100430.19;4979621;27;97975;-71
2022/06/01 02:59:01;;;;;;;;;;;;;;;11.90;60.11;100432.91;4993504;27;115631;-71
2022/06/01 03:01:27;;;;;;;;;;;;;;;11.86;59.58;100429.13;4979329;27;127290;-64
2022/06/01 03:03:53;;;;;;;;;;;;;;;11.85;60.16;100426.72;4977980;28;98054;-64
2022/06/01 03:06:19;;;;;;;;;;;;;;;11.84;59.70;100434.03;4976825;27;127757;-64
2022/06/01 03:08:45;;;;;;;;;;;;;;;11.86;59.91;100436.44;4989261;27;99773;-71
2022/06/01 03:11:12;;;;;;;;;;;;;;;11.85;60.08;100443.72;4998221;27;127179;-71
2022/06/01 03:13:38;;;;;;;;;;;;;;;11.85;59.93;100448.34;4981923;27;113031;-64
2022/06/01 03:16:04;;;;;;;;;;;;;;;11.80;59.52;100449.94;4977785;27;127087;-71
2022/06/01 03:18:31;;;;;;;;;;;;;;;11.79;59.76;100442.94;4985662;27;118850;-71
2022/06/01 03:20:57;;;;;;;;;;;;;;;11.77;59.47;100447.78;4979142;27;99245;-71
2022/06/01 03:23:24;;;;;;;;;;;;;;;11.76;59.75;100443.47;4979923;27;99178;-64
2022/06/01 03:25:50;;;;;;;;;;;;;;;11.76;59.88;100437.25;4978895;27;98037;-64
2022/06/01 03:28:16;;;;;;;;;;;;;;;11.74;59.70;100439.41;4986296;27;109211;-71
2022/06/01 03:30:43;;;;;;;;;;;;;;;11.71;59.40;100438.09;4987663;27;99404;-71
2022/06/01 03:33:10;;;;;;;;;;;;;;;11.68;59.70;100444.03;4994596;27;98230;-72
2022/06/01 03:35:37;;;;;;;;;;;;;;;11.67;59.37;100431.63;4987867;27;98621;-71
2022/06/01 03:38:03;;;;;;;;;;;;;;;11.70;59.90;100438.34;4982757;27;98052;-71
2022/06/01 03:40:29;;;;;;;;;;;;;;;11.72;59.35;100433.50;4990298;27;125514;-71
2022/06/01 03:42:55;;;;;;;;;;;;;;;11.73;59.75;100435.09;4983118;27;98801;-64
2022/06/01 03:48:08;;;;;;;;;;;;;;;11.77;59.29;100442.38;4985672;27;97866;-64
2022/06/01 03:50:34;;;;;;;;;;;;;;;11.80;59.68;100443.72;4993369;27;99027;-72
2022/06/01 03:53:02;;;;;;;;;;;;;;;11.80;59.40;100439.13;5001461;27;127039;-64
2022/06/01 03:55:28;;;;;;;;;;;;;;;11.82;59.46;100438.03;4990657;27;98285;-71
2022/06/01 03:57:54;;;;;;;;;;;;;;;11.82;59.38;100449.66;4984653;27;115253;-71
2022/06/01 04:00:22;;;;;;;;;;;;;;;11.81;59.18;100442.63;5002054;27;110584;-64
2022/06/01 04:02:48;;;;;;;;;;;;;;;11.80;59.46;100444.53;5000028;27;98132;-64
2022/06/01 04:05:14;;;;;;;;;;;;;;;11.82;59.31;100438.03;5001802;27;98172;-71
2022/06/01 04:07:40;;;;;;;;;;;;;;;11.83;59.76;100447.75;5001571;27;117992;-71
2022/06/01 04:10:07;;;;;;;;;;;;;;;11.84;59.26;100452.13;4981848;27;104247;-71
2022/06/01 04:12:34;;;;;;;;;;;;;;;11.85;59.75;100446.44;4983278;27;98638;-64
2022/06/01 04:15:00;;;;;;;;;;;;;;;11.88;59.36;100439.69;4981168;27;125576;-64
2022/06/01 04:17:26;;;;;;;;;;;;;;;11.89;59.35;100442.09;4983166;27;97795;-71
2022/06/01 04:19:52;;;;;;;;;;;;;;;11.93;59.22;100447.75;4999823;27;121286;-71
2022/06/01 04:22:17;;;;;;;;;;;;;;;11.98;59.55;100451.22;5000527;27;128070;-64
2022/06/01 04:24:43;;;;;;;;;;;;;;;12.05;59.76;100445.53;4996922;27;127542;-64
2022/06/01 04:27:09;;;;;;;;;;;;;;;12.11;59.68;100451.75;4980060;27;98211;-64
2022/06/01 04:29:35;;;;;;;;;;;;;;;12.16;59.35;100446.31;4980016;27;127276;-71
2022/06/01 04:32:05;;;;;;;;;;;;;;;12.23;59.67;100452.22;4980160;27;124425;-64
2022/06/01 04:34:30;;;;;;;;;;;;;;;12.29;59.50;100448.38;4978967;28;98580;-71
2022/06/01 04:36:56;;;;;;;;;;;;;;;12.37;59.52;100449.69;4977289;27;117843;-72
2022/06/01 04:39:22;;;;;;;;;;;;;;;12.42;59.54;100449.69;4977581;27;128213;-65
2022/06/01 04:41:48;;;;;;;;;;;;;;;12.46;59.55;100443.44;4958608;28;100110;-72
2022/06/01 04:44:16;;;;;;;;;;;;;;;12.51;59.88;100443.41;4976388;28;109327;-65
2022/06/01 04:46:42;;;;;;;;;;;;;;;12.57;59.49;100440.66;4977770;27;106318;-72
2022/06/01 04:49:08;;;;;;;;;;;;;;;12.62;59.85;100443.34;4977561;27;98873;-65
2022/06/01 04:51:36;;;;;;;;;;;;;;;12.70;59.76;100448.16;4978256;27;127028;-65
2022/06/01 04:54:02;;;;;;;;;;;;;;;12.78;59.59;100445.63;4981427;27;128467;-64
2022/06/01 04:56:28;;;;;;;;;;;;;;;12.87;59.45;100453.94;4981414;27;97687;-71
2022/06/01 04:58:54;;;;;;;;;;;;;;;12.94;59.41;100449.03;4989369;27;127886;-64
2022/06/01 05:01:20;;;;;;;;;;;;;;;13.10;59.49;100449.72;4999977;27;127752;-70
2022/06/01 05:03:46;;;;;;;;;;;;;;;13.21;59.27;100448.53;5001812;27;97709;-71
2022/06/01 05:06:12;;;;;;;;;;;;;;;13.36;59.08;100450.31;4998235;27;115473;-64
2022/06/01 05:08:38;;;;;;;;;;;;;;;13.51;59.03;100452.03;4992170;27;128406;-64
2022/06/01 05:11:04;;;;;;;;;;;;;;;13.65;58.87;100450.28;4979919;27;125434;-64
2022/06/01 05:13:30;;;;;;;;;;;;;;;13.81;58.81;100452.81;4980427;28;127269;-72
2022/06/01 05:15:57;;;;;;;;;;;;;;;13.95;59.22;100451.81;4982629;27;97769;-64
2022/06/01 05:18:23;;;;;;;;;;;;;;;14.13;58.95;100455.66;4987057;27;98282;-68
2022/06/01 05:20:49;;;;;;;;;;;;;;;14.30;58.85;100449.72;4998538;27;128817;-64
2022/06/01 05:23:18;;;;;;;;;;;;;;;14.51;58.31;100460.34;4999299;27;123003;-71
2022/06/01 05:25:45;;;;;;;;;;;;;;;14.68;57.93;100455.97;4999686;27;97983;-71
2022/06/01 05:28:11;;;;;;;;;;;;;;;14.88;58.05;100448.63;4998675;27;98488;-71
2022/06/01 05:30:37;;;;;;;;;;;;;;;15.07;58.25;100441.25;5000174;27;97836;-64
2022/06/01 05:33:03;;;;;;;;;;;;;;;15.22;57.99;100435.56;4999087;27;97920;-64
2022/06/01 05:35:29;;;;;;;;;;;;;;;15.43;57.57;100435.19;4999072;27;98508;-71
2022/06/01 05:37:55;;;;;;;;;;;;;;;15.66;57.27;100433.41;4991864;27;126885;-71
2022/06/01 05:40:21;;;;;;;;;;;;;;;15.91;56.78;100446.47;4981027;27;128229;-64
2022/06/01 05:42:47;;;;;;;;;;;;;;;16.21;56.53;100438.81;4977695;28;128503;-64
2022/06/01 05:45:13;;;;;;;;;;;;;;;16.52;56.30;100441.66;4980385;27;105880;-71
2022/06/01 05:47:39;;;;;;;;;;;;;;;16.87;55.94;100448.19;4980509;28;99759;-64
2022/06/01 05:50:05;;;;;;;;;;;;;;;18.34;53.23;100444.47;4999369;27;107601;-70
2022/06/01 05:52:31;;;;;;;;;;;;;;;19.06;52.68;100445.72;5000354;27;97839;-71
2022/06/01 05:54:57;;;;;;;;;;;;;;;21.11;49.28;100453.41;4983484;27;105710;-64
2022/06/01 05:57:23;;;;;;;;;;;;;;;23.29;45.73;100460.09;4980558;27;128240;-64
2022/06/01 05:59:49;;;;;;;;;;;;;;;23.94;44.56;100466.06;4999915;27;126855;-71
2022/06/01 06:02:15;;;;;;;;;;;;;;;25.20;42.96;100475.81;4999717;27;127469;-63
2022/06/01 06:04:41;;;;;;;;;;;;;;;24.78;43.79;100480.47;4986157;27;116566;-65
2022/06/01 06:07:07;;;;;;;;;;;;;;;24.60;44.57;100482.84;4979480;28;113119;-71
2022/06/01 06:09:32;;;;;;;;;;;;;;;25.61;42.64;100486.38;4979705;27;128575;-64
2022/06/01 06:11:58;;;;;;;;;;;;;;;27.09;39.50;100479.78;4980274;28;102216;-68
2022/06/01 06:14:24;;;;;;;;;;;;;;;26.55;39.90;100478.38;4989465;27;118713;-71
2022/06/01 06:16:50;;;;;;;;;;;;;;;26.46;40.29;100477.84;4999545;27;128043;-71
2022/06/01 06:19:17;;;;;;;;;;;;;;;27.29;38.57;100480.41;5000273;27;98945;-64
2022/06/01 06:21:44;;;;;;;;;;;;;;;27.49;38.13;100473.47;5000218;27;97705;-71
2022/06/01 06:24:12;;;;;;;;;;;;;;;27.97;37.63;100469.94;4987151;27;98029;-64
2022/06/01 06:26:38;;;;;;;;;;;;;;;28.99;36.44;100466.09;4980190;28;98541;-70
2022/06/01 06:29:07;;;;;;;;;;;;;;;28.91;36.67;100478.34;4979948;27;99150;-64
2022/06/01 06:31:32;;;;;;;;;;;;;;;29.39;36.38;100466.94;4969242;27;98341;-64
2022/06/01 06:33:58;;;;;;;;;;;;;;;30.26;34.55;100455.44;4986934;27;116141;-71
2022/06/01 06:36:24;;;;;;;;;;;;;;;30.55;34.08;100460.88;4996758;27;128557;-64
2022/06/01 06:38:50;;;;;;;;;;;;;;;29.80;35.14;100453.50;4983787;27;127443;-70
2022/06/01 06:41:16;;;;;;;;;;;;;;;29.52;35.01;100451.50;4983369;27;128846;-64
2022/06/01 06:43:42;;;;;;;;;;;;;;;29.31;34.83;100449.50;4979973;28;117843;-64
2022/06/01 06:46:11;;;;;;;;;;;;;;;29.07;35.02;100450.25;4978563;28;128971;-71
2022/06/01 06:48:36;;;;;;;;;;;;;;;28.77;34.71;100454.13;4985073;27;98550;-71
2022/06/01 06:51:03;;;;;;;;;;;;;;;28.44;34.67;100454.38;4997393;27;106858;-64
2022/06/01 06:53:29;;;;;;;;;;;;;;;28.19;34.83;100451.47;4985753;27;112172;-65
2022/06/01 06:55:55;;;;;;;;;;;;;;;28.01;35.25;100454.13;4980897;27;99969;-70
2022/06/01 06:58:21;;;;;;;;;;;;;;;27.92;35.22;100454.47;4981563;27;98712;-71
2022/06/01 07:00:47;;;;;;;;;;;;;;;27.92;35.14;100459.22;4984701;27;127501;-64
2022/06/01 07:03:13;;;;;;;;;;;;;;;27.93;35.26;100461.59;4978782;27;115458;-64
2022/06/01 07:08:24;;;;;;;;;;;;;;;28.04;34.80;100448.59;4990191;27;98786;-71
2022/06/01 07:10:51;;;;;;;;;;;;;;;28.25;34.84;100449.91;5002099;27;97867;-64
2022/06/01 07:13:17;;;;;;;;;;;;;;;28.43;34.61;100450.03;5002919;27;117807;-70
2022/06/01 07:15:43;;;;;;;;;;;;;;;28.62;34.11;100452.50;4983639;27;125897;-64
2022/06/01 07:18:08;;;;;;;;;;;;;;;28.80;33.83;100449.78;4983517;27;128765;-64
2022/06/01 07:20:34;;;;;;;;;;;;;;;29.00;33.79;100441.94;4982695;27;113456;-64
2022/06/01 07:23:00;;;;;;;;;;;;;;;29.21;33.18;100452.28;4961663;28;101484;-64
2022/06/01 07:25:28;;;;;;;;;;;;;;;29.43;33.51;100455.84;4981156;27;100712;-70
2022/06/01 07:27:54;;;;;;;;;;;;;;;29.61;32.93;100456.69;4984768;27;98592;-71
2022/06/01 07:30:20;;;;;;;;;;;;;;;29.81;32.38;100454.28;4992429;27;120268;-71
2022/06/01 07:32:49;;;;;;;;;;;;;;;29.91;32.06;100455.47;4983080;28;98115;-64
2022/06/01 07:35:16;;;;;;;;;;;;;;;30.09;31.55;100447.88;4980064;27;128352;-71
2022/06/01 07:43:12;;;;;;;;;;;;;;;30.82;31.19;100435.34;4980126;28;97706;-64
2022/06/01 07:45:40;;;;;;;;;;;;;;;31.20;31.14;100431.50;4993669;27;123097;-72
2022/06/01 07:48:09;;;;;;;;;;;;;;;31.33;30.54;100440.19;4996528;27;122269;-71
2022/06/01 07:50:35;;;;;;;;;;;;;;;31.66;30.35;100440.72;4982315;27;98438;-64
2022/06/01 07:53:02;;;;;;;;;;;;;;;32.00;30.27;100438.81;4982861;27;97991;-72
2022/06/01 07:55:28;;;;;;;;;;;;;;;32.47;29.96;100441.09;4993075;27;98860;-71
2022/06/01 07:57:54;;;;;;;;;;;;;;;32.94;29.11;100441.28;4998550;27;128110;-64
2022/06/01 08:00:20;;;;;;;;;;;;;;;33.44;28.17;100440.50;4981699;27;127620;-71
2022/06/01 08:02:46;;;;;;;;;;;;;;;34.12;27.85;100442.91;4981863;27;110830;-71
2022/06/01 08:05:13;;;;;;;;;;;;;;;33.82;28.00;100448.66;4991201;27;98676;-65
2022/06/01 08:07:39;;;;;;;;;;;;;;;33.30;28.55;100447.09;5002957;27;98716;-64
2022/06/01 08:10:06;;;;;;;;;;;;;;;33.29;28.65;100448.34;4982489;27;125589;-64
2022/06/01 08:15:16;;;;;;;;;;;;;;;34.48;26.62;100436.59;5001025;27;98225;-71
2022/06/01 08:17:44;;;;;;;;;;;;;;;35.25;26.15;100438.09;5000764;27;99026;-72
2022/06/01 08:20:13;;;;;;;;;;;;;;;35.36;25.49;100443.44;4982400;27;98583;-64
2022/06/01 08:22:39;;;;;;;;;;;;;;;36.38;24.71;100446.75;4997374;27;98177;-65
2022/06/01 08:25:06;;;;;;;;;;;;;;;36.98;24.33;100446.19;4981282;28;111343;-64
2022/06/01 08:27:32;;;;;;;;;;;;;;;37.68;23.93;100450.72;4988615;27;125065;-71
2022/06/01 08:29:58;;;;;;;;;;;;;;;38.24;23.52;100444.34;4983240;27;127456;-65
2022/06/01 08:32:24;;;;;;;;;;;;;;;38.56;22.70;100442.38;4982339;27;113298;-65
2022/06/01 08:34:50;;;;;;;;;;;;;;;38.97;22.79;100449.59;4980080;28;128366;-65
2022/06/01 08:37:16;;;;;;;;;;;;;;;39.45;21.99;100440.81;4978699;28;122471;-64
2022/06/01 08:39:43;;;;;;;;;;;;;;;39.70;21.72;100445.44;4981468;27;98137;-72
2022/06/01 08:42:12;;;;;;;;;;;;;;;40.04;21.49;100426.63;5002088;27;97823;-65
2022/06/01 08:44:40;;;;;;;;;;;;;;;40.43;21.20;100428.44;4982102;27;103863;-72
2022/06/01 08:47:12;;;;;;;;;;;;;;;41.02;20.42;100413.19;5001135;27;98784;-72
2022/06/01 08:49:38;;;;;;;;;;;;;;;41.55;20.23;100421.81;4982857;27;98949;-72
2022/06/01 08:52:05;;;;;;;;;;;;;;;41.95;19.65;100417.75;4963352;28;117547;-65
2022/06/01 08:54:33;;;;;;;;;;;;;;;42.45;19.24;100415.03;4979183;27;126276;-71
2022/06/01 08:57:01;;;;;;;;;;;;;;;42.85;18.81;100420.06;4986001;27;98579;-65
2022/06/01 08:59:42;;;;;;;;;;;;;;;43.53;18.38;100424.63;4970422;28;98390;-65
2022/06/01 09:02:17;;;;;;;;;;;;;;;41.81;19.44;100419.25;4982256;27;97849;-64
2022/06/01 09:04:49;;;;;;;;;;;;;;;41.46;19.25;100421.88;4981122;27;106971;-64
2022/06/01 09:07:31;;;;;;;;;;;;;;;39.45;20.11;100421.09;4979091;28;126105;-72
2022/06/01 09:10:34;;;;;;;;;;;;;;;38.94;20.53;100435.66;4996476;27;97936;-71
2022/06/01 09:13:07;;;;;;;;;;;;;;;39.70;19.93;100434.94;5002082;27;97928;-72
2022/06/01 09:16:00;;;;;;;;;;;;;;;39.86;19.75;100431.03;5000381;27;98360;-72
2022/06/01 09:18:28;;;;;;;;;;;;;;;39.50;19.77;100434.59;4992336;27;98769;-72
2022/06/01 09:23:38;;;;;;;;;;;;;;;38.63;19.84;100436.44;4995403;27;97893;-64
2022/06/01 09:26:06;;;;;;;;;;;;;;;37.57;20.69;100439.88;4982177;27;98748;-64
2022/06/01 09:28:36;;;;;;;;;;;;;;;36.53;20.99;100425.50;4996382;27;121330;-66
2022/06/01 09:31:08;;;;;;;;;;;;;;;35.81;21.66;100432.28;4979097;27;98223;-64
2022/06/01 09:33:36;;;;;;;;;;;;;;;34.34;23.10;100434.09;4981096;28;109904;-72
2022/06/01 09:36:07;;;;;;;;;;;;;;;33.11;23.80;100436.66;4994823;27;123617;-65
2022/06/01 09:38:47;;;;;;;;;;;;;;;32.11;24.29;100435.09;4988722;27;98245;-71
2022/06/01 09:41:22;;;;;;;;;;;;;;;32.15;23.99;100435.88;4987160;27;97888;-71
2022/06/01 09:43:59;;;;;;;;;;;;;;;30.91;25.16;100438.47;4999707;27;97710;-64
2022/06/01 09:46:35;;;;;;;;;;;;;;;29.97;26.01;100443.53;4999670;27;98311;-72
2022/06/01 09:49:08;;;;;;;;;;;;;;;29.18;27.21;100458.63;4994469;27;98816;-64
2022/06/01 09:51:37;;;;;;;;;;;;;;;28.59;27.52;100456.03;4980230;28;111078;-71
2022/06/01 09:54:13;;;;;;;;;;;;;;;28.11;27.69;100454.19;4980506;28;115781;-71
2022/06/01 09:56:44;;;;;;;;;;;;;;;27.72;28.11;100451.13;4967576;27;98216;-64
2022/06/01 10:07:42;;;;;;;;;;;;;;;26.39;29.73;100462.72;4977766;28;98248;-71
2022/06/01 10:10:08;;;;;;;;;;;;;;;26.08;30.09;100476.91;4979606;27;128115;-64
2022/06/01 10:12:46;;;;;;;;;;;;;;;25.62;30.89;100475.00;4972685;27;127003;-71
2022/06/01 10:15:30;;;;;;;;;;;;;;;25.07;31.48;100488.13;4998646;27;97937;-72
2022/06/01 10:18:11;;;;;;;;;;;;;;;24.54;32.24;100479.59;4999229;27;128675;-64
2022/06/01 10:20:40;;;;;;;;;;;;;;;24.06;32.73;100473.41;4997986;27;121468;-72
2022/06/01 10:23:14;;;;;;;;;;;;;;;23.68;33.10;100485.88;4966419;27;97972;-67
2022/06/01 10:25:43;;;;;;;;;;;;;;;23.35;33.92;100477.94;4961080;28;98447;-64
2022/06/01 10:28:24;;;;;;;;;;;;;;;23.08;33.99;100484.28;4941778;28;108161;-71
2022/06/01 10:30:52;;;;;;;;;;;;;;;22.83;34.42;100459.59;4976247;27;119894;-64
2022/06/01 10:33:29;;;;;;;;;;;;;;;22.65;34.60;100459.09;4965906;28;98352;-64
2022/06/01 10:36:12;;;;;;;;;;;;;;;22.51;34.82;100469.66;4978005;28;98033;-71
2022/06/01 10:38:52;;;;;;;;;;;;;;;22.45;35.02;100471.06;4955765;27;98598;-64
2022/06/01 10:41:41;;;;;;;;;;;;;;;22.66;35.08;100460.69;4974664;27;98635;-64
2022/06/01 10:44:45;;;;;;;;;;;;;;;25.83;31.93;100448.94;5001758;27;98273;-64
2022/06/01 10:47:33;;;;;;;;;;;;;;;29.63;28.96;100462.63;4962140;27;98454;-65
2022/06/01 10:50:19;;;;;;;;;;;;;;;32.10;27.46;100470.53;4983987;27;98751;-72
2022/06/01 10:53:21;;;;;;;;;;;;;;;33.81;25.83;100469.44;4996265;27;126534;-71
2022/06/01 10:55:48;;;;;;;;;;;;;;;34.82;25.50;100464.28;4998321;27;98339;-71
2022/06/01 10:58:19;;;;;;;;;;;;;;;35.41;24.58;100468.91;5003915;27;97697;-65
2022/06/01 11:01:22;;;;;;;;;;;;;;;34.31;24.87;100460.94;4970866;28;122378;-71
2022/06/01 11:04:26;;;;;;;;;;;;;;;33.49;25.33;100465.19;4984753;27;128125;-64
2022/06/01 11:07:22;;;;;;;;;;;;;;;32.12;26.49;100456.22;5002983;27;98393;-64
2022/06/01 11:10:07;;;;;;;;;;;;;;;30.81;27.20;100454.00;5001369;27;98133;-64
2022/06/01 11:12:45;;;;;;;;;;;;;;;29.64;27.58;100469.78;4992773;27;98272;-72
2022/06/01 11:15:36;;;;;;;;;;;;;;;28.62;28.01;100471.91;4980576;27;115453;-64
2022/06/01 11:18:23;;;;;;;;;;;;;;;27.63;28.81;100436.84;4964646;27;99398;-63
2022/06/01 11:21:00;;;;;;;;;;;;;;;27.01;29.52;100395.97;4983697;27;97709;-64
2022/06/01 11:24:04;;;;;;;;;;;;;;;26.92;29.56;100410.09;4980933;27;127465;-72
2022/06/01 11:27:01;;;;;;;;;;;;;;;28.65;27.55;100423.19;5002753;27;98863;-64
2022/06/01 11:29:55;;;;;;;;;;;;;;;30.95;25.76;100434.47;4999975;27;97934;-65
2022/06/01 11:32:28;;;;;;;;;;;;;;;32.18;25.00;100441.38;4995940;27;97662;-70
2022/06/01 11:35:05;;;;;;;;;;;;;;;32.90;24.32;100435.72;4980137;27;126878;-72
2022/06/01 11:37:35;;;;;;;;;;;;;;;33.47;23.80;100431.28;4976419;28;98047;-71
2022/06/01 11:40:24;;;;;;;;;;;;;;;33.73;22.54;100429.66;4961145;28;98155;-72
2022/06/01 11:42:56;;;;;;;;;;;;;;;33.75;22.65;100432.78;4982523;27;98044;-71
2022/06/01 11:45:35;;;;;;;;;;;;;;;33.77;22.88;100429.59;4999142;27;128010;-72
2022/06/01 11:48:06;;;;;;;;;;;;;;;33.88;23.11;100424.59;4973150;27;98397;-64
2022/06/01 11:50:48;;;;;;;;;;;;;;;33.96;22.59;100420.44;4963909;27;98441;-64
2022/06/01 11:53:28;;;;;;;;;;;;;;;34.18;22.81;100424.41;4996615;27;98976;-71
2022/06/01 11:56:15;;;;;;;;;;;;;;;34.41;22.52;100415.16;5002224;27;113803;-64
2022/06/01 11:58:55;;;;;;;;;;;;;;;34.82;21.88;100407.50;5001672;27;98517;-64
2022/06/01 12:01:48;;;;;;;;;;;;;;;35.27;21.62;100404.06;4980891;27;114262;-64
2022/06/01 12:04:18;;;;;;;;;;;;;;;35.56;21.34;100392.94;4983449;27;97704;-64
2022/06/01 12:06:57;;;;;;;;;;;;;;;35.81;21.32;100389.47;4981660;28;98214;-65
2022/06/01 12:09:36;;;;;;;;;;;;;;;36.12;21.15;100390.59;4981704;27;98116;-65
2022/06/01 12:12:02;;;;;;;;;;;;;;;36.33;21.15;100382.78;4980791;27;98042;-64
2022/06/01 12:14:29;;;;;;;;;;;;;;;36.65;20.72;100397.88;4980663;27;98571;-72
2022/06/01 12:17:17;;;;;;;;;;;;;;;36.55;20.66;100386.56;4979966;28;101504;-65
2022/06/01 12:20:10;;;;;;;;;;;;;;;36.12;20.88;100384.22;4983497;27;98709;-65
2022/06/01 12:28:52;;;;;;;;;;;;;;;36.72;20.84;100384.41;5002507;27;98260;-72
2022/06/01 12:31:22;;;;;;;;;;;;;;;36.83;20.92;100379.25;4991176;27;98212;-64
2022/06/01 12:34:20;;;;;;;;;;;;;;;36.42;20.54;100365.28;4981468;28;110086;-72
2022/06/01 12:37:10;;;;;;;;;;;;;;;36.44;20.19;100363.63;4969266;28;98230;-64
2022/06/01 12:39:39;;;;;;;;;;;;;;;36.26;20.35;100354.94;4964273;28;98299;-72
2022/06/01 12:42:14;;;;;;;;;;;;;;;36.20;20.54;100351.94;4981875;27;98474;-64
2022/06/01 12:44:41;;;;;;;;;;;;;;;36.03;20.11;100339.97;4980973;27;98377;-65
2022/06/01 12:47:07;;;;;;;;;;;;;;;34.77;20.29;100360.44;4963430;28;98060;-72
2022/06/01 12:49:37;;;;;;;;;;;;;;;34.89;20.34;100345.75;4978790;28;128221;-64
2022/06/01 12:52:18;;;;;;;;;;;;;;;34.62;20.58;100337.59;4978341;27;98736;-64
2022/06/01 12:54:50;;;;;;;;;;;;;;;33.52;21.07;100349.03;4960219;28;98294;-64
2022/06/01 12:57:23;;;;;;;;;;;;;;;31.81;22.67;100343.88;4978643;27;97635;-64
2022/06/01 13:00:07;;;;;;;;;;;;;;;31.84;22.85;100343.84;4969020;27;104538;-72
2022/06/01 13:02:34;;;;;;;;;;;;;;;30.46;24.04;100333.44;4974811;27;98418;-64
2022/06/01 13:05:00;;;;;;;;;;;;;;;29.88;24.60;100336.84;4977012;28;98215;-64
2022/06/01 13:07:30;;;;;;;;;;;;;;;30.75;24.05;100339.63;4975344;28;103519;-72
2022/06/01 13:10:03;;;;;;;;;;;;;;;30.65;24.05;100340.44;4968493;28;98608;-64
2022/06/01 13:12:31;;;;;;;;;;;;;;;30.08;24.94;100343.50;4977639;27;98975;-64
2022/06/01 13:15:13;;;;;;;;;;;;;;;31.22;23.96;100342.03;4977035;28;98337;-71
2022/06/01 13:17:52;;;;;;;;;;;;;;;31.02;24.15;100339.03;4977301;27;97743;-64
2022/06/01 13:20:26;;;;;;;;;;;;;;;30.69;24.42;100341.22;4958128;28;101341;-71
2022/06/01 13:22:52;;;;;;;;;;;;;;;30.32;24.55;100350.19;4959592;28;98407;-64
2022/06/01 13:25:28;;;;;;;;;;;;;;;29.71;24.90;100352.34;4973809;28;113180;-63
2022/06/01 13:27:54;;;;;;;;;;;;;;;29.14;24.90;100357.94;4959679;28;98018;-64